<?xml version="1.0" encoding="UTF-8" standalone="no" ?>
<gpx xmlns="http://www.topografix.com/GPX/1/1" xmlns:xsi="http://www.w3.org/2001/XMLSchema-instance" xsi:schemaLocation="http://www.topografix.com/GPX/1/1 http://www.topografix.com/GPX/1/1/gpx.xsd" version="1.1" creator="VisuGPX - https://www.visugpx.com">
  <metadata>
    <name>Aigoual - Saint Guilhem (jour 3)</name>
    <desc><![CDATA[Randonnée sportive réalisée avec mon frère Sylvain... été 2009 (hamac, sac 15kg)]]></desc>
  </metadata>
  <trk>
    <name><![CDATA[ACTIVE LOG072002]]></name>
    <trkseg>
      <trkpt lat="43.80363" lon="3.53257">
        <ele>589.2</ele>
        <time>2009-08-04T05:20:02Z</time>
      </trkpt>
      <trkpt lat="43.80361" lon="3.53256">
        <ele>589.2</ele>
        <time>2009-08-04T05:20:04Z</time>
      </trkpt>
      <trkpt lat="43.80352" lon="3.53248">
        <ele>589.3</ele>
        <time>2009-08-04T05:20:15Z</time>
      </trkpt>
      <trkpt lat="43.80348" lon="3.53244">
        <ele>589.4</ele>
        <time>2009-08-04T05:20:20Z</time>
      </trkpt>
      <trkpt lat="43.80336" lon="3.53234">
        <ele>589.9</ele>
        <time>2009-08-04T05:20:33Z</time>
      </trkpt>
      <trkpt lat="43.80317" lon="3.53219">
        <ele>591.1</ele>
        <time>2009-08-04T05:20:55Z</time>
      </trkpt>
      <trkpt lat="43.80313" lon="3.53213">
        <ele>591.4</ele>
        <time>2009-08-04T05:21:18Z</time>
      </trkpt>
      <trkpt lat="43.80311" lon="3.53205">
        <ele>591.4</ele>
        <time>2009-08-04T05:21:24Z</time>
      </trkpt>
      <trkpt lat="43.80305" lon="3.53171">
        <ele>591.4</ele>
        <time>2009-08-04T05:21:46Z</time>
      </trkpt>
      <trkpt lat="43.803" lon="3.53138">
        <ele>591.8</ele>
        <time>2009-08-04T05:22:09Z</time>
      </trkpt>
      <trkpt lat="43.80287" lon="3.5312">
        <ele>592.5</ele>
        <time>2009-08-04T05:22:28Z</time>
      </trkpt>
      <trkpt lat="43.80266" lon="3.53133">
        <ele>593.6</ele>
        <time>2009-08-04T05:22:50Z</time>
      </trkpt>
      <trkpt lat="43.80249" lon="3.53135">
        <ele>594.5</ele>
        <time>2009-08-04T05:23:05Z</time>
      </trkpt>
      <trkpt lat="43.80224" lon="3.53126">
        <ele>595.9</ele>
        <time>2009-08-04T05:23:27Z</time>
      </trkpt>
      <trkpt lat="43.80215" lon="3.53113">
        <ele>596.3</ele>
        <time>2009-08-04T05:23:44Z</time>
      </trkpt>
      <trkpt lat="43.80208" lon="3.53085">
        <ele>596.5</ele>
        <time>2009-08-04T05:24:04Z</time>
      </trkpt>
      <trkpt lat="43.80205" lon="3.53052">
        <ele>596.8</ele>
        <time>2009-08-04T05:24:24Z</time>
      </trkpt>
      <trkpt lat="43.80203" lon="3.53036">
        <ele>597</ele>
        <time>2009-08-04T05:24:34Z</time>
      </trkpt>
      <trkpt lat="43.80203" lon="3.53008">
        <ele>597.1</ele>
        <time>2009-08-04T05:24:52Z</time>
      </trkpt>
      <trkpt lat="43.80203" lon="3.52987">
        <ele>597.4</ele>
        <time>2009-08-04T05:25:05Z</time>
      </trkpt>
      <trkpt lat="43.80204" lon="3.52952">
        <ele>598</ele>
        <time>2009-08-04T05:25:27Z</time>
      </trkpt>
      <trkpt lat="43.80203" lon="3.52945">
        <ele>598.2</ele>
        <time>2009-08-04T05:25:41Z</time>
      </trkpt>
      <trkpt lat="43.802" lon="3.52916">
        <ele>598.8</ele>
        <time>2009-08-04T05:26:00Z</time>
      </trkpt>
      <trkpt lat="43.80184" lon="3.52894">
        <ele>599.3</ele>
        <time>2009-08-04T05:26:19Z</time>
      </trkpt>
      <trkpt lat="43.80168" lon="3.52878">
        <ele>599.5</ele>
        <time>2009-08-04T05:26:36Z</time>
      </trkpt>
      <trkpt lat="43.80147" lon="3.52871">
        <ele>599.8</ele>
        <time>2009-08-04T05:26:55Z</time>
      </trkpt>
      <trkpt lat="43.80121" lon="3.52859">
        <ele>600</ele>
        <time>2009-08-04T05:27:18Z</time>
      </trkpt>
      <trkpt lat="43.80099" lon="3.52846">
        <ele>600.1</ele>
        <time>2009-08-04T05:27:40Z</time>
      </trkpt>
      <trkpt lat="43.8009" lon="3.52842">
        <ele>600.1</ele>
        <time>2009-08-04T05:27:58Z</time>
      </trkpt>
      <trkpt lat="43.8009" lon="3.52842">
        <ele>600.1</ele>
        <time>2009-08-04T05:28:22Z</time>
      </trkpt>
      <trkpt lat="43.80087" lon="3.52838">
        <ele>600.1</ele>
        <time>2009-08-04T05:28:37Z</time>
      </trkpt>
      <trkpt lat="43.80085" lon="3.52834">
        <ele>600</ele>
        <time>2009-08-04T05:28:40Z</time>
      </trkpt>
      <trkpt lat="43.80079" lon="3.52822">
        <ele>599.8</ele>
        <time>2009-08-04T05:28:51Z</time>
      </trkpt>
      <trkpt lat="43.80074" lon="3.52791">
        <ele>599.1</ele>
        <time>2009-08-04T05:29:14Z</time>
      </trkpt>
      <trkpt lat="43.80055" lon="3.5277">
        <ele>599.1</ele>
        <time>2009-08-04T05:29:36Z</time>
      </trkpt>
      <trkpt lat="43.8005" lon="3.52749">
        <ele>598.8</ele>
        <time>2009-08-04T05:29:56Z</time>
      </trkpt>
      <trkpt lat="43.80044" lon="3.52726">
        <ele>598.2</ele>
        <time>2009-08-04T05:30:17Z</time>
      </trkpt>
      <trkpt lat="43.80036" lon="3.52707">
        <ele>597.8</ele>
        <time>2009-08-04T05:30:37Z</time>
      </trkpt>
      <trkpt lat="43.80029" lon="3.5269">
        <ele>597.4</ele>
        <time>2009-08-04T05:30:52Z</time>
      </trkpt>
      <trkpt lat="43.80027" lon="3.52685">
        <ele>597.3</ele>
        <time>2009-08-04T05:31:11Z</time>
      </trkpt>
      <trkpt lat="43.80025" lon="3.52663">
        <ele>596.6</ele>
        <time>2009-08-04T05:31:31Z</time>
      </trkpt>
      <trkpt lat="43.80023" lon="3.52654">
        <ele>596.3</ele>
        <time>2009-08-04T05:31:44Z</time>
      </trkpt>
      <trkpt lat="43.8002" lon="3.52627">
        <ele>595.3</ele>
        <time>2009-08-04T05:32:02Z</time>
      </trkpt>
      <trkpt lat="43.80014" lon="3.52604">
        <ele>594.6</ele>
        <time>2009-08-04T05:32:19Z</time>
      </trkpt>
      <trkpt lat="43.79997" lon="3.52578">
        <ele>594</ele>
        <time>2009-08-04T05:32:42Z</time>
      </trkpt>
      <trkpt lat="43.79977" lon="3.52567">
        <ele>594.1</ele>
        <time>2009-08-04T05:33:03Z</time>
      </trkpt>
      <trkpt lat="43.79976" lon="3.52565">
        <ele>594.1</ele>
        <time>2009-08-04T05:33:05Z</time>
      </trkpt>
      <trkpt lat="43.79958" lon="3.52563">
        <ele>594.2</ele>
        <time>2009-08-04T05:33:24Z</time>
      </trkpt>
      <trkpt lat="43.79934" lon="3.52561">
        <ele>594.4</ele>
        <time>2009-08-04T05:33:46Z</time>
      </trkpt>
      <trkpt lat="43.79914" lon="3.52563">
        <ele>594.8</ele>
        <time>2009-08-04T05:34:07Z</time>
      </trkpt>
      <trkpt lat="43.79896" lon="3.52557">
        <ele>596.5</ele>
        <time>2009-08-04T05:34:23Z</time>
      </trkpt>
      <trkpt lat="43.79867" lon="3.52551">
        <ele>599</ele>
        <time>2009-08-04T05:34:48Z</time>
      </trkpt>
      <trkpt lat="43.7985" lon="3.5254">
        <ele>600.2</ele>
        <time>2009-08-04T05:35:07Z</time>
      </trkpt>
      <trkpt lat="43.79829" lon="3.5253">
        <ele>601.3</ele>
        <time>2009-08-04T05:35:29Z</time>
      </trkpt>
      <trkpt lat="43.79827" lon="3.52528">
        <ele>601.3</ele>
        <time>2009-08-04T05:35:47Z</time>
      </trkpt>
      <trkpt lat="43.79825" lon="3.52528">
        <ele>601.4</ele>
        <time>2009-08-04T05:37:48Z</time>
      </trkpt>
      <trkpt lat="43.79811" lon="3.5252">
        <ele>601.8</ele>
        <time>2009-08-04T05:38:41Z</time>
      </trkpt>
      <trkpt lat="43.79796" lon="3.52504">
        <ele>601.9</ele>
        <time>2009-08-04T05:38:57Z</time>
      </trkpt>
      <trkpt lat="43.79794" lon="3.52499">
        <ele>601.9</ele>
        <time>2009-08-04T05:39:01Z</time>
      </trkpt>
      <trkpt lat="43.79778" lon="3.52484">
        <ele>602.5</ele>
        <time>2009-08-04T05:39:17Z</time>
      </trkpt>
      <trkpt lat="43.79762" lon="3.52463">
        <ele>603</ele>
        <time>2009-08-04T05:39:36Z</time>
      </trkpt>
      <trkpt lat="43.79744" lon="3.5244">
        <ele>603.7</ele>
        <time>2009-08-04T05:39:56Z</time>
      </trkpt>
      <trkpt lat="43.7973" lon="3.52421">
        <ele>604.5</ele>
        <time>2009-08-04T05:40:13Z</time>
      </trkpt>
      <trkpt lat="43.79727" lon="3.52418">
        <ele>604.7</ele>
        <time>2009-08-04T05:40:16Z</time>
      </trkpt>
      <trkpt lat="43.79721" lon="3.52417">
        <ele>605.1</ele>
        <time>2009-08-04T05:40:22Z</time>
      </trkpt>
      <trkpt lat="43.79711" lon="3.52387">
        <ele>604.6</ele>
        <time>2009-08-04T05:40:43Z</time>
      </trkpt>
      <trkpt lat="43.79694" lon="3.52386">
        <ele>605.5</ele>
        <time>2009-08-04T05:41:00Z</time>
      </trkpt>
      <trkpt lat="43.79676" lon="3.52397">
        <ele>607</ele>
        <time>2009-08-04T05:41:17Z</time>
      </trkpt>
      <trkpt lat="43.79656" lon="3.52378">
        <ele>606.4</ele>
        <time>2009-08-04T05:41:38Z</time>
      </trkpt>
      <trkpt lat="43.79635" lon="3.52361">
        <ele>605.6</ele>
        <time>2009-08-04T05:41:59Z</time>
      </trkpt>
      <trkpt lat="43.79614" lon="3.52333">
        <ele>604.3</ele>
        <time>2009-08-04T05:42:22Z</time>
      </trkpt>
      <trkpt lat="43.79591" lon="3.52314">
        <ele>604.6</ele>
        <time>2009-08-04T05:42:44Z</time>
      </trkpt>
      <trkpt lat="43.79574" lon="3.523">
        <ele>605</ele>
        <time>2009-08-04T05:43:01Z</time>
      </trkpt>
      <trkpt lat="43.7955" lon="3.52286">
        <ele>605.6</ele>
        <time>2009-08-04T05:43:24Z</time>
      </trkpt>
      <trkpt lat="43.79525" lon="3.52272">
        <ele>606</ele>
        <time>2009-08-04T05:43:46Z</time>
      </trkpt>
      <trkpt lat="43.79497" lon="3.52258">
        <ele>606.4</ele>
        <time>2009-08-04T05:44:11Z</time>
      </trkpt>
      <trkpt lat="43.79489" lon="3.52228">
        <ele>606</ele>
        <time>2009-08-04T05:44:31Z</time>
      </trkpt>
      <trkpt lat="43.79486" lon="3.52216">
        <ele>605.9</ele>
        <time>2009-08-04T05:44:40Z</time>
      </trkpt>
      <trkpt lat="43.79483" lon="3.52202">
        <ele>605.7</ele>
        <time>2009-08-04T05:44:57Z</time>
      </trkpt>
      <trkpt lat="43.79486" lon="3.52198">
        <ele>605.6</ele>
        <time>2009-08-04T05:45:10Z</time>
      </trkpt>
      <trkpt lat="43.79487" lon="3.52195">
        <ele>605.6</ele>
        <time>2009-08-04T05:45:25Z</time>
      </trkpt>
      <trkpt lat="43.79487" lon="3.52194">
        <ele>605.5</ele>
        <time>2009-08-04T05:45:37Z</time>
      </trkpt>
      <trkpt lat="43.79483" lon="3.52189">
        <ele>605.5</ele>
        <time>2009-08-04T05:45:55Z</time>
      </trkpt>
      <trkpt lat="43.79475" lon="3.52193">
        <ele>605.7</ele>
        <time>2009-08-04T05:46:05Z</time>
      </trkpt>
      <trkpt lat="43.79469" lon="3.52203">
        <ele>606</ele>
        <time>2009-08-04T05:46:14Z</time>
      </trkpt>
      <trkpt lat="43.79468" lon="3.5221">
        <ele>606.1</ele>
        <time>2009-08-04T05:46:19Z</time>
      </trkpt>
      <trkpt lat="43.79463" lon="3.52226">
        <ele>606.5</ele>
        <time>2009-08-04T05:46:37Z</time>
      </trkpt>
      <trkpt lat="43.79452" lon="3.52244">
        <ele>607</ele>
        <time>2009-08-04T05:46:54Z</time>
      </trkpt>
      <trkpt lat="43.79446" lon="3.52252">
        <ele>607.4</ele>
        <time>2009-08-04T05:47:09Z</time>
      </trkpt>
      <trkpt lat="43.79445" lon="3.52252">
        <ele>607.4</ele>
        <time>2009-08-04T05:47:21Z</time>
      </trkpt>
      <trkpt lat="43.79447" lon="3.52254">
        <ele>607.5</ele>
        <time>2009-08-04T05:47:40Z</time>
      </trkpt>
      <trkpt lat="43.79446" lon="3.52255">
        <ele>607.5</ele>
        <time>2009-08-04T05:47:57Z</time>
      </trkpt>
      <trkpt lat="43.79446" lon="3.52255">
        <ele>607.6</ele>
        <time>2009-08-04T05:48:09Z</time>
      </trkpt>
      <trkpt lat="43.79443" lon="3.52265">
        <ele>608.1</ele>
        <time>2009-08-04T05:48:23Z</time>
      </trkpt>
      <trkpt lat="43.79442" lon="3.52269">
        <ele>608.4</ele>
        <time>2009-08-04T05:48:38Z</time>
      </trkpt>
      <trkpt lat="43.73921" lon="3.54661">
        <ele>217.8</ele>
        <time>2009-08-04T11:08:34Z</time>
      </trkpt>
      <trkpt lat="43.7393" lon="3.54683">
        <ele>219.1</ele>
        <time>2009-08-04T11:08:45Z</time>
      </trkpt>
      <trkpt lat="43.73929" lon="3.54681">
        <ele>219.1</ele>
        <time>2009-08-04T11:08:52Z</time>
      </trkpt>
      <trkpt lat="43.73929" lon="3.54681">
        <ele>219.1</ele>
        <time>2009-08-04T11:08:54Z</time>
      </trkpt>
    </trkseg>
  </trk>
  <trk>
    <name><![CDATA[Route Google Map nÂ°0 ]]></name>
    <trkseg>
      <trkpt lat="43.79421" lon="3.52309">
        <ele>611.4</ele>
      </trkpt>
      <trkpt lat="43.79368" lon="3.52627">
        <ele>633.9</ele>
      </trkpt>
      <trkpt lat="43.79133" lon="3.52494">
        <ele>664.1</ele>
      </trkpt>
      <trkpt lat="43.79006" lon="3.52623">
        <ele>678.2</ele>
      </trkpt>
      <trkpt lat="43.78817" lon="3.5258">
        <ele>690.6</ele>
      </trkpt>
      <trkpt lat="43.78498" lon="3.527">
        <ele>724.4</ele>
      </trkpt>
      <trkpt lat="43.78386" lon="3.52807">
        <ele>738.7</ele>
      </trkpt>
      <trkpt lat="43.78411" lon="3.52674">
        <ele>727.9</ele>
      </trkpt>
      <trkpt lat="43.78411" lon="3.52365">
        <ele>716.1</ele>
      </trkpt>
      <trkpt lat="43.78157" lon="3.52391">
        <ele>727.1</ele>
      </trkpt>
      <trkpt lat="43.7811" lon="3.52344">
        <ele>725.3</ele>
      </trkpt>
      <trkpt lat="43.7811" lon="3.52344">
        <ele>725.3</ele>
      </trkpt>
      <trkpt lat="43.77934" lon="3.52412">
        <ele>756.1</ele>
      </trkpt>
      <trkpt lat="43.77934" lon="3.52412">
        <ele>756.1</ele>
      </trkpt>
    </trkseg>
  </trk>
  <trk>
    <name><![CDATA[Route Google Map nÂ°1 ]]></name>
    <trkseg>
      <trkpt lat="43.77868" lon="3.52462">
        <ele>766.5</ele>
      </trkpt>
      <trkpt lat="43.77844" lon="3.52451">
        <ele>768.6</ele>
      </trkpt>
      <trkpt lat="43.7785" lon="3.52487">
        <ele>766.8</ele>
      </trkpt>
      <trkpt lat="43.7787" lon="3.52518">
        <ele>766.5</ele>
      </trkpt>
      <trkpt lat="43.77894" lon="3.52542">
        <ele>767.5</ele>
      </trkpt>
      <trkpt lat="43.77924" lon="3.52668">
        <ele>763.3</ele>
      </trkpt>
      <trkpt lat="43.77927" lon="3.52716">
        <ele>752.3</ele>
      </trkpt>
      <trkpt lat="43.77914" lon="3.52769">
        <ele>735.7</ele>
      </trkpt>
      <trkpt lat="43.77877" lon="3.52821">
        <ele>709.6</ele>
      </trkpt>
      <trkpt lat="43.77848" lon="3.52912">
        <ele>678.1</ele>
      </trkpt>
      <trkpt lat="43.77837" lon="3.52941">
        <ele>670.4</ele>
      </trkpt>
      <trkpt lat="43.77762" lon="3.5297">
        <ele>640.2</ele>
      </trkpt>
      <trkpt lat="43.77734" lon="3.52979">
        <ele>628.8</ele>
      </trkpt>
      <trkpt lat="43.77681" lon="3.53002">
        <ele>606.2</ele>
      </trkpt>
      <trkpt lat="43.77635" lon="3.53035">
        <ele>590</ele>
      </trkpt>
      <trkpt lat="43.77588" lon="3.53054">
        <ele>575.2</ele>
      </trkpt>
      <trkpt lat="43.77551" lon="3.53071">
        <ele>566.8</ele>
      </trkpt>
    </trkseg>
  </trk>
  <trk>
    <name><![CDATA[Route Google Map nÂ°2 ]]></name>
    <trkseg>
      <trkpt lat="43.77535" lon="3.53075">
        <ele>563.8</ele>
      </trkpt>
      <trkpt lat="43.77478" lon="3.53101">
        <ele>551.3</ele>
      </trkpt>
      <trkpt lat="43.77447" lon="3.5315">
        <ele>541.9</ele>
      </trkpt>
      <trkpt lat="43.7739" lon="3.5317">
        <ele>532</ele>
      </trkpt>
      <trkpt lat="43.77306" lon="3.53183">
        <ele>520</ele>
      </trkpt>
      <trkpt lat="43.77263" lon="3.53202">
        <ele>514.1</ele>
      </trkpt>
      <trkpt lat="43.77202" lon="3.53185">
        <ele>507.1</ele>
      </trkpt>
      <trkpt lat="43.77165" lon="3.53183">
        <ele>502.7</ele>
      </trkpt>
      <trkpt lat="43.77143" lon="3.53131">
        <ele>501.3</ele>
      </trkpt>
      <trkpt lat="43.77136" lon="3.53062">
        <ele>502.8</ele>
      </trkpt>
      <trkpt lat="43.7708" lon="3.5297">
        <ele>504.1</ele>
      </trkpt>
      <trkpt lat="43.77018" lon="3.52964">
        <ele>501.5</ele>
      </trkpt>
      <trkpt lat="43.76967" lon="3.52983">
        <ele>497.1</ele>
      </trkpt>
      <trkpt lat="43.7691" lon="3.52951">
        <ele>494.8</ele>
      </trkpt>
      <trkpt lat="43.7686" lon="3.52876">
        <ele>494.7</ele>
      </trkpt>
      <trkpt lat="43.7682" lon="3.52852">
        <ele>492.1</ele>
      </trkpt>
      <trkpt lat="43.76784" lon="3.52822">
        <ele>489.5</ele>
      </trkpt>
      <trkpt lat="43.76741" lon="3.52822">
        <ele>486</ele>
      </trkpt>
      <trkpt lat="43.76716" lon="3.52882">
        <ele>483.7</ele>
      </trkpt>
    </trkseg>
  </trk>
  <trk>
    <name><![CDATA[Route Google Map nÂ°3 ]]></name>
    <trkseg>
      <trkpt lat="43.767" lon="3.52889">
        <ele>482.8</ele>
      </trkpt>
      <trkpt lat="43.76655" lon="3.52938">
        <ele>478.7</ele>
      </trkpt>
      <trkpt lat="43.76598" lon="3.52947">
        <ele>474.6</ele>
      </trkpt>
      <trkpt lat="43.76583" lon="3.53007">
        <ele>472.7</ele>
      </trkpt>
      <trkpt lat="43.76586" lon="3.53058">
        <ele>471</ele>
      </trkpt>
      <trkpt lat="43.76609" lon="3.53129">
        <ele>471</ele>
      </trkpt>
      <trkpt lat="43.76573" lon="3.53215">
        <ele>470</ele>
      </trkpt>
      <trkpt lat="43.76569" lon="3.53264">
        <ele>471.6</ele>
      </trkpt>
      <trkpt lat="43.76541" lon="3.53301">
        <ele>472.2</ele>
      </trkpt>
      <trkpt lat="43.76493" lon="3.53313">
        <ele>470.8</ele>
      </trkpt>
      <trkpt lat="43.76454" lon="3.53354">
        <ele>470.3</ele>
      </trkpt>
      <trkpt lat="43.76466" lon="3.53395">
        <ele>472.2</ele>
      </trkpt>
      <trkpt lat="43.76409" lon="3.53507">
        <ele>470.1</ele>
      </trkpt>
      <trkpt lat="43.76341" lon="3.53528">
        <ele>478.5</ele>
      </trkpt>
      <trkpt lat="43.76276" lon="3.53575">
        <ele>488.4</ele>
      </trkpt>
      <trkpt lat="43.76239" lon="3.53419">
        <ele>492.3</ele>
      </trkpt>
      <trkpt lat="43.7619" lon="3.53429">
        <ele>497.4</ele>
      </trkpt>
      <trkpt lat="43.76138" lon="3.5344">
        <ele>504.5</ele>
      </trkpt>
      <trkpt lat="43.76071" lon="3.53481">
        <ele>509.3</ele>
      </trkpt>
      <trkpt lat="43.76026" lon="3.53541">
        <ele>506.6</ele>
      </trkpt>
      <trkpt lat="43.75997" lon="3.5359">
        <ele>506.7</ele>
      </trkpt>
      <trkpt lat="43.75932" lon="3.5367">
        <ele>506</ele>
      </trkpt>
      <trkpt lat="43.75879" lon="3.53702">
        <ele>511.1</ele>
      </trkpt>
      <trkpt lat="43.758" lon="3.53702">
        <ele>522.3</ele>
      </trkpt>
      <trkpt lat="43.75772" lon="3.53732">
        <ele>525.7</ele>
      </trkpt>
    </trkseg>
  </trk>
  <trk>
    <name><![CDATA[Route Google Map nÂ°4 ]]></name>
    <trkseg>
      <trkpt lat="43.75772" lon="3.53748">
        <ele>524.8</ele>
      </trkpt>
      <trkpt lat="43.7576" lon="3.53765">
        <ele>523.8</ele>
      </trkpt>
      <trkpt lat="43.75744" lon="3.53766">
        <ele>523</ele>
      </trkpt>
      <trkpt lat="43.75717" lon="3.53733">
        <ele>526.7</ele>
      </trkpt>
      <trkpt lat="43.75712" lon="3.53826">
        <ele>504</ele>
      </trkpt>
      <trkpt lat="43.75689" lon="3.53853">
        <ele>491.8</ele>
      </trkpt>
      <trkpt lat="43.7565" lon="3.53866">
        <ele>486</ele>
      </trkpt>
      <trkpt lat="43.75627" lon="3.53901">
        <ele>481.1</ele>
      </trkpt>
      <trkpt lat="43.75577" lon="3.5395">
        <ele>469.4</ele>
      </trkpt>
      <trkpt lat="43.75557" lon="3.53978">
        <ele>462.7</ele>
      </trkpt>
      <trkpt lat="43.75529" lon="3.54047">
        <ele>447.3</ele>
      </trkpt>
      <trkpt lat="43.75515" lon="3.54076">
        <ele>442.3</ele>
      </trkpt>
      <trkpt lat="43.7552" lon="3.5409">
        <ele>437.7</ele>
      </trkpt>
      <trkpt lat="43.75547" lon="3.54073">
        <ele>435.2</ele>
      </trkpt>
      <trkpt lat="43.75584" lon="3.54048">
        <ele>434</ele>
      </trkpt>
      <trkpt lat="43.75623" lon="3.54047">
        <ele>444.2</ele>
      </trkpt>
      <trkpt lat="43.75605" lon="3.54123">
        <ele>428.3</ele>
      </trkpt>
      <trkpt lat="43.75581" lon="3.54192">
        <ele>414.2</ele>
      </trkpt>
      <trkpt lat="43.75554" lon="3.54301">
        <ele>409.1</ele>
      </trkpt>
      <trkpt lat="43.75529" lon="3.54331">
        <ele>402.2</ele>
      </trkpt>
      <trkpt lat="43.75486" lon="3.54321">
        <ele>396.2</ele>
      </trkpt>
      <trkpt lat="43.75428" lon="3.54311">
        <ele>391.8</ele>
      </trkpt>
      <trkpt lat="43.75395" lon="3.54323">
        <ele>390.1</ele>
      </trkpt>
      <trkpt lat="43.75368" lon="3.54326">
        <ele>392.9</ele>
      </trkpt>
      <trkpt lat="43.7534" lon="3.54341">
        <ele>391.8</ele>
      </trkpt>
      <trkpt lat="43.75315" lon="3.5438">
        <ele>387</ele>
      </trkpt>
      <trkpt lat="43.75256" lon="3.54412">
        <ele>394.2</ele>
      </trkpt>
      <trkpt lat="43.75193" lon="3.54468">
        <ele>379.7</ele>
      </trkpt>
      <trkpt lat="43.75151" lon="3.54444">
        <ele>387.9</ele>
      </trkpt>
      <trkpt lat="43.7512" lon="3.54424">
        <ele>392.3</ele>
      </trkpt>
      <trkpt lat="43.75091" lon="3.54426">
        <ele>389.4</ele>
      </trkpt>
      <trkpt lat="43.75058" lon="3.54457">
        <ele>383.6</ele>
      </trkpt>
      <trkpt lat="43.74965" lon="3.54659">
        <ele>353.5</ele>
      </trkpt>
      <trkpt lat="43.74941" lon="3.54642">
        <ele>356</ele>
      </trkpt>
      <trkpt lat="43.74905" lon="3.54591">
        <ele>359.5</ele>
      </trkpt>
      <trkpt lat="43.74882" lon="3.54542">
        <ele>362.9</ele>
      </trkpt>
      <trkpt lat="43.74794" lon="3.54562">
        <ele>344.2</ele>
      </trkpt>
      <trkpt lat="43.74741" lon="3.54576">
        <ele>335.3</ele>
      </trkpt>
      <trkpt lat="43.74706" lon="3.54552">
        <ele>324.5</ele>
      </trkpt>
      <trkpt lat="43.74741" lon="3.54447">
        <ele>329.4</ele>
      </trkpt>
      <trkpt lat="43.7475" lon="3.54388">
        <ele>327.6</ele>
      </trkpt>
      <trkpt lat="43.74756" lon="3.54293">
        <ele>323.2</ele>
      </trkpt>
      <trkpt lat="43.74753" lon="3.54225">
        <ele>319.6</ele>
      </trkpt>
      <trkpt lat="43.74767" lon="3.54151">
        <ele>325.8</ele>
      </trkpt>
      <trkpt lat="43.74732" lon="3.54129">
        <ele>324.8</ele>
      </trkpt>
      <trkpt lat="43.74666" lon="3.54123">
        <ele>323.3</ele>
      </trkpt>
      <trkpt lat="43.7464" lon="3.54115">
        <ele>326.2</ele>
      </trkpt>
      <trkpt lat="43.74565" lon="3.54144">
        <ele>323.8</ele>
      </trkpt>
      <trkpt lat="43.74491" lon="3.54151">
        <ele>323.5</ele>
      </trkpt>
      <trkpt lat="43.7444" lon="3.54172">
        <ele>321.5</ele>
      </trkpt>
      <trkpt lat="43.74395" lon="3.5419">
        <ele>319.3</ele>
      </trkpt>
      <trkpt lat="43.74357" lon="3.54185">
        <ele>317.1</ele>
      </trkpt>
      <trkpt lat="43.74327" lon="3.54224">
        <ele>314.6</ele>
      </trkpt>
      <trkpt lat="43.74275" lon="3.54275">
        <ele>302.5</ele>
      </trkpt>
      <trkpt lat="43.74228" lon="3.5438">
        <ele>293.8</ele>
      </trkpt>
      <trkpt lat="43.74193" lon="3.54439">
        <ele>285.2</ele>
      </trkpt>
      <trkpt lat="43.74182" lon="3.54299">
        <ele>280.6</ele>
      </trkpt>
      <trkpt lat="43.74149" lon="3.54348">
        <ele>275.1</ele>
      </trkpt>
      <trkpt lat="43.74143" lon="3.54319">
        <ele>275.1</ele>
      </trkpt>
      <trkpt lat="43.7413" lon="3.54338">
        <ele>273.3</ele>
      </trkpt>
      <trkpt lat="43.74123" lon="3.54318">
        <ele>273.5</ele>
      </trkpt>
      <trkpt lat="43.7411" lon="3.54346">
        <ele>270.7</ele>
      </trkpt>
      <trkpt lat="43.74087" lon="3.54378">
        <ele>264.8</ele>
      </trkpt>
      <trkpt lat="43.74076" lon="3.54439">
        <ele>256.7</ele>
      </trkpt>
      <trkpt lat="43.74051" lon="3.5445">
        <ele>251.9</ele>
      </trkpt>
      <trkpt lat="43.74024" lon="3.5451">
        <ele>243.9</ele>
      </trkpt>
      <trkpt lat="43.74018" lon="3.54583">
        <ele>236.5</ele>
      </trkpt>
      <trkpt lat="43.73955" lon="3.54666">
        <ele>221.2</ele>
      </trkpt>
      <trkpt lat="43.73928" lon="3.54695">
        <ele>219.1</ele>
      </trkpt>
      <trkpt lat="43.73905" lon="3.5473">
        <ele>217.1</ele>
      </trkpt>
      <trkpt lat="43.73826" lon="3.54861">
        <ele>201.9</ele>
      </trkpt>
      <trkpt lat="43.73796" lon="3.54907">
        <ele>193.6</ele>
      </trkpt>
      <trkpt lat="43.73787" lon="3.54876">
        <ele>190.1</ele>
      </trkpt>
      <trkpt lat="43.73765" lon="3.54911">
        <ele>190.2</ele>
      </trkpt>
      <trkpt lat="43.73793" lon="3.54812">
        <ele>187.4</ele>
      </trkpt>
      <trkpt lat="43.73772" lon="3.54747">
        <ele>169.6</ele>
      </trkpt>
      <trkpt lat="43.73769" lon="3.54805">
        <ele>175.3</ele>
      </trkpt>
      <trkpt lat="43.73748" lon="3.54832">
        <ele>168.9</ele>
      </trkpt>
      <trkpt lat="43.73658" lon="3.54899">
        <ele>156.1</ele>
      </trkpt>
      <trkpt lat="43.73624" lon="3.54895">
        <ele>147.2</ele>
      </trkpt>
      <trkpt lat="43.73598" lon="3.54874">
        <ele>134.5</ele>
      </trkpt>
      <trkpt lat="43.73569" lon="3.54884">
        <ele>133</ele>
      </trkpt>
      <trkpt lat="43.73599" lon="3.54834">
        <ele>120</ele>
      </trkpt>
      <trkpt lat="43.73568" lon="3.54848">
        <ele>121.4</ele>
      </trkpt>
      <trkpt lat="43.73525" lon="3.54826">
        <ele>113.6</ele>
      </trkpt>
      <trkpt lat="43.73516" lon="3.54783">
        <ele>111.9</ele>
      </trkpt>
    </trkseg>
  </trk>
</gpx>